NCAR-RAP Real-Time Weather Data

Output produced by METARs form (21 May 2019  11:33 UTC)
found at http://weather.rap.ucar.edu/surface/
 
RJFG 210900Z 30015KT CAVOK 20/13 Q1005
RJFG 210800Z 30015KT CAVOK 21/13 Q1005
RJFG 210700Z 30017KT CAVOK 21/12 Q1005
RJFG 210600Z 29017KT CAVOK 21/13 Q1006
RJFG 210500Z 30014KT 9999 FEW030 22/13 Q1005
RJFG 210400Z 31010KT 280V350 9999 FEW030 22/13 Q1005
RJFG 210300Z 30010KT 280V340 9999 FEW020 21/11 Q1006
RJFG 210200Z 31012KT 9999 FEW020 20/12 Q1006
RJFG 210100Z 31013KT 9999 FEW020 19/12 Q1006
RJFG 210000Z 30018KT 9999 FEW020 18/11 Q1005
RJFG 202330Z 31016KT 9999 FEW020 18/11 Q1005
RJFG 202310Z 31019G29KT 9999 FEW020 18/10 Q1005 RMK 1CU020 A2969
RJFG 200900Z 31010KT 1500 R31/P1800N -SHRA BR FEW001 SCT002 BKN004 20/19 Q1004
RJFG 200825Z 31009KT 0500 R31/P1800N -SHRA FG FEW001 SCT002 BKN003 20/20 Q1004 RMK 1ST001 3ST002 5ST003 A2967
RJFG 200800Z 29009KT 0100 R31/0200V0300N -SHRA FG VV001 21/20 Q1004
RJFG 200702Z 29009KT 0100 R31/0200V0650D -SHRA FG VV001 22/21 Q1004 RMK A2966
RJFG 200700Z 29008KT 0100 R31/0200V1800D -SHRA FG VV001 22/21 Q1004
RJFG 200632Z 29007KT 2000 -SHRA BR FEW001 SCT002 BKN004 22/21 Q1004 RMK 1ST001 3ST002 5ST004 A2966
RJFG 200613Z 28007KT 4000 -SHRA BR FEW001 SCT005 BKN008 22/22 Q1004 RMK 1ST001 3ST005 5CU008 A2966
RJFG 200600Z 29008KT 0400 R31/0150V1000U -SHRA FG FEW000 SCT001 BKN002 22/22 Q1004
RJFG 200544Z 29007KT 0100 R31/0150V1600D -SHRA FG VV001 23/22 Q1005 RMK A2968
RJFG 200535Z 28009KT 0300 R31/0750VP1800U -SHRA FG FEW001 SCT002 BKN003 23/22 Q1005 RMK 1ST001 3ST002 5ST003 A2969
RJFG 200524Z 27007KT 0600 R31/1200VP1800D -SHRA FG FEW001 SCT002 BKN003 23/22 Q1005 RMK 1ST001 3ST002 5ST003 A2969
RJFG 200500Z 26007KT 3000 R31/P1800N -SHRA PRFG BR FEW001 SCT002 BKN005 23/22 Q1005
RJFG 200438Z 23006KT 200V260 9999 -SHRA FEW002 SCT006 BKN010 24/22 Q1006 RMK 1ST002 3ST006 5CU010 A2971
RJFG 200400Z 24005KT 210V270 9999 FEW002 SCT005 BKN012 24/22 Q1006
RJFG 200300Z 18004KT 130V230 9999 -SHRA FEW004 SCT010 BKN030 24/22 Q1006
RJFG 200240Z 19005KT 160V230 9999 FEW003 SCT006 BKN012 24/22 Q1006 RMK 1ST003 3ST006 5CU012 A2973
RJFG 200200Z 20003KT 150V240 9999 FEW002 SCT004 BKN006 24/22 Q1006
RJFG 200100Z 27004KT 9999 FEW004 SCT006 BKN012 24/23 Q1007
RJFG 200000Z 26004KT 230V300 9999 FEW003 SCT006 BKN012 24/22 Q1007
RJFG 192330Z 22004KT 190V260 9999 FEW003 SCT006 BKN012 24/23 Q1007
RJFG 192310Z 22004KT 170V260 9999 FEW003 SCT006 BKN012 24/23 Q1007 RMK 1ST003 3ST006 5CU012 A2974
RJFG 190900Z 10010KT 0800 R31/0800D +SHRA FG FEW001 SCT002 BKN004 22/21 Q1009
RJFG 190834Z 12016KT 0700 R31/0500V0800N SHRA FG FEW001 SCT002 BKN003 22/21 Q1009 RMK 1ST001 3ST002 5ST003 A2981
RJFG 190817Z 12016KT 0400 R31/0300V0500U -SHRA FG FEW001 BKN002 22/21 Q1009 RMK 1ST001 6ST002 A2980
RJFG 190800Z 12016KT 0300 R31/0350V0600U SHRA FG FEW000 SCT001 BKN002 22/21 Q1009
RJFG 190732Z 13014KT 100V160 0400 R31/0450V1800D -SHRA FG FEW001 SCT002 BKN003 22/21 Q1009 RMK 1ST001 3ST002 5ST003 A2982
RJFG 190700Z 12016KT 0700 R31/0500V0750N SHRA FG FEW001 SCT002 BKN003 22/21 Q1009
RJFG 190620Z 11015KT 0700 R31/0400V0750U SHRA FG FEW001 SCT002 BKN004 22/21 Q1009 RMK 1ST001 3ST002 5ST004 A2982
RJFG 190600Z 12019G30KT 0500 R31/0300V0750U SHRA FG FEW001 SCT002 BKN004 22/21 Q1009
RJFG 190500Z 12013KT 0300 R31/0200V0300N SHRA FG FEW000 SCT001 BKN002 22/21 Q1010
RJFG 190429Z 11017G28KT 0400 R31/0300V0400N SHRA FG FEW000 SCT001 BKN002 22/21 Q1010 RMK 1ST000 3ST001 5ST002 A2984
RJFG 190400Z 12021G35KT 0500 R31/0350V0650N -SHRA FG FEW001 SCT002 BKN004 22/21 Q1010
RJFG 190308Z 12016G26KT 080V140 0500 R31/0300V0400N SHRA FG FEW001 SCT002 BKN003 22/21 Q1010 RMK 1ST001 3ST002 5ST003 A2985
RJFG 190300Z 12015KT 0400 R31/0300V0800D -SHRA FG FEW000 SCT001 BKN002 22/21 Q1010
RJFG 190200Z 11018KT 080V140 0600 R31/0350N SHRA FG FEW001 SCT002 BKN005 22/21 Q1010
RJFG 190100Z 11019KT 0500 R31/0300V0400N -SHRA FG FEW001 SCT002 BKN003 21/21 Q1010
RJFG 190042Z 11016G26KT 080V140 0500 R31/0350V0800D -SHRA FG FEW001 SCT002 BKN003 21/21 Q1011 RMK 1ST001 3ST002 5ST003 A2985
RJFG 190000Z 11019G30KT 1000 R31/0300VP1800D SHRA BR FEW001 SCT002 BKN003 21/21 Q1011
RJFG 182344Z 11020KT 080V140 1500 R31/1100VP1800D -SHRA BR FEW001 SCT002 BKN006 21/21 Q1010 RMK 1ST001 3ST002 5ST006 A2985